Time;durP1;ratioP1;P1;durP2;ratioP2;P2;SDS_P1;SDS_P2;PMS_P1;PMS_P2;Temp;Humidity;BMP_temperature;BMP_pressure;BME280_temperature;BME280_humidity;BME280_pressure;Samples;Min_cycle;Max_cycle;Signal;HPM_P1;HPM_P2
2024/04/01 00:02:16;;;;;;;0.60;0.30;;;;;;;12.69;43.97;99041.16;5022965;28;20033;-78
2024/04/01 00:04:43;;;;;;;0.75;0.35;;;;;;;12.69;43.87;99055.75;5005564;28;20516;-77
2024/04/01 00:07:09;;;;;;;1.20;0.52;;;;;;;12.68;44.05;99058.69;5025082;28;20050;-77
2024/04/01 00:09:36;;;;;;;1.05;0.40;;;;;;;12.66;43.93;99042.41;5016304;28;20535;-78
2024/04/01 00:12:02;;;;;;;1.02;0.40;;;;;;;12.66;43.50;99047.88;5017728;28;20041;-77
2024/04/01 00:14:29;;;;;;;1.30;0.40;;;;;;;12.65;43.53;99046.19;5006422;28;20069;-77
2024/04/01 00:16:57;;;;;;;1.17;0.45;;;;;;;12.66;43.36;99047.03;5021263;28;20435;-77
2024/04/01 00:19:23;;;;;;;1.02;0.50;;;;;;;12.63;43.86;99042.78;5029789;28;20045;-77
2024/04/01 00:21:49;;;;;;;1.90;1.08;;;;;;;12.63;43.64;99034.53;5011546;28;20046;-77
2024/04/01 00:24:16;;;;;;;1.23;0.60;;;;;;;12.64;44.05;99025.25;5006321;28;20053;-78
2024/04/01 00:26:43;;;;;;;2.40;0.93;;;;;;;12.64;44.13;99017.03;5014127;28;20041;-78
2024/04/01 00:29:10;;;;;;;1.10;0.55;;;;;;;12.62;44.36;99002.69;5013112;28;20057;-77
2024/04/01 00:31:36;;;;;;;0.88;0.57;;;;;;;12.62;43.58;98993.59;5007805;28;20516;-77
2024/04/01 00:34:05;;;;;;;1.58;0.70;;;;;;;12.61;43.89;98978.97;5018610;28;20075;-78
2024/04/01 00:36:30;;;;;;;1.45;0.70;;;;;;;12.59;43.94;98985.69;5009258;28;20469;-77
2024/04/01 00:38:58;;;;;;;1.27;0.70;;;;;;;12.57;43.87;98983.13;5040352;28;20065;-78
2024/04/01 00:41:26;;;;;;;1.15;0.70;;;;;;;12.56;44.41;98983.31;5017040;28;20053;-78
2024/04/01 00:43:53;;;;;;;2.38;0.80;;;;;;;12.54;44.51;98988.19;5017390;28;20042;-78
2024/04/01 00:46:20;;;;;;;2.80;0.90;;;;;;;12.54;44.32;98990.91;5010160;28;20049;-78
2024/04/01 00:48:48;;;;;;;2.35;0.80;;;;;;;12.52;44.09;98991.09;5021224;28;20419;-78
2024/04/01 00:51:16;;;;;;;1.83;0.80;;;;;;;12.50;44.14;98996.78;5000332;28;20046;-78
2024/04/01 00:53:45;;;;;;;1.20;0.65;;;;;;;12.48;44.21;98995.25;4999417;28;20092;-78
2024/04/01 00:56:12;;;;;;;2.33;0.85;;;;;;;12.47;44.19;98991.66;5012337;28;20042;-78
2024/04/01 00:58:40;;;;;;;1.95;0.90;;;;;;;12.44;43.71;98980.25;5013270;28;20073;-78
2024/04/01 01:01:07;;;;;;;2.95;0.88;;;;;;;12.43;43.96;98982.13;5016436;28;20045;-78
2024/04/01 01:03:35;;;;;;;1.80;0.90;;;;;;;12.41;44.57;98989.69;5019008;28;20509;-77
2024/04/01 01:06:02;;;;;;;1.60;0.80;;;;;;;12.40;44.43;98987.13;5015047;28;20060;-77
2024/04/01 01:08:30;;;;;;;2.15;1.00;;;;;;;12.39;44.59;98986.28;5016605;28;20041;-78
2024/04/01 01:10:56;;;;;;;1.63;0.90;;;;;;;12.37;44.17;98980.16;5017359;28;20045;-77
2024/04/01 01:13:23;;;;;;;2.55;1.00;;;;;;;12.36;44.68;98989.44;5016846;28;20046;-78
2024/04/01 01:15:49;;;;;;;2.80;1.13;;;;;;;12.35;44.34;98984.13;5022472;28;20112;-78
2024/04/01 01:18:16;;;;;;;1.92;1.17;;;;;;;12.33;44.84;98978.84;5012533;28;20398;-77
2024/04/01 01:20:42;;;;;;;2.20;1.00;;;;;;;12.31;44.43;98986.41;5024451;28;20091;-78
2024/04/01 01:23:10;;;;;;;3.80;1.20;;;;;;;12.33;44.76;98980.72;5019736;28;20049;-78
2024/04/01 01:25:37;;;;;;;1.60;0.98;;;;;;;12.30;44.23;98975.59;5008765;28;20038;-78
2024/04/01 01:28:06;;;;;;;1.80;1.00;;;;;;;12.29;44.35;98969.31;5022767;28;20037;-78
2024/04/01 01:30:35;;;;;;;2.40;1.00;;;;;;;12.27;44.70;98968.63;5017776;28;20108;-77
2024/04/01 01:33:04;;;;;;;3.08;1.08;;;;;;;12.28;44.60;98974.97;5019560;28;20575;-77
2024/04/01 01:35:31;;;;;;;2.08;0.85;;;;;;;12.27;44.57;98968.63;5022622;28;20069;-78
2024/04/01 01:37:59;;;;;;;2.58;1.10;;;;;;;12.25;44.80;98961.63;5019579;28;20424;-78
2024/04/01 01:40:26;;;;;;;2.55;1.10;;;;;;;12.25;44.75;98962.47;5026420;28;20420;-78
2024/04/01 01:42:53;;;;;;;2.13;0.95;;;;;;;12.21;44.42;98950.22;5018352;28;20030;-78
2024/04/01 01:45:19;;;;;;;1.63;1.08;;;;;;;12.21;44.99;98949.34;5019925;28;20050;-77
2024/04/01 01:47:46;;;;;;;2.35;1.20;;;;;;;12.21;44.63;98952.09;4999810;28;20050;-77
2024/04/01 01:50:12;;;;;;;2.30;1.10;;;;;;;12.19;44.83;98955.03;5020726;28;20062;-78
2024/04/01 01:52:39;;;;;;;1.70;0.90;;;;;;;12.19;45.06;98937.72;5022097;28;20283;-77
2024/04/01 01:55:06;;;;;;;1.90;0.90;;;;;;;12.18;44.64;98942.34;5016830;28;20045;-78
2024/04/01 01:57:35;;;;;;;2.30;1.25;;;;;;;12.19;45.35;98938.56;5024134;28;20049;-78
2024/04/01 02:00:01;;;;;;;2.20;1.20;;;;;;;12.17;44.62;98937.06;5021492;28;20574;-78
2024/04/01 02:02:28;;;;;;;1.73;0.90;;;;;;;12.16;45.04;98930.72;5019243;28;20107;-78
2024/04/01 02:04:54;;;;;;;1.92;1.10;;;;;;;12.16;45.23;98925.22;5020723;28;20045;-78
2024/04/01 02:07:21;;;;;;;2.08;1.15;;;;;;;12.16;45.09;98924.38;5027599;28;20050;-77
2024/04/01 02:09:46;;;;;;;2.28;0.80;;;;;;;12.14;44.70;98919.09;4999141;28;20041;-78
2024/04/01 02:12:13;;;;;;;1.60;0.75;;;;;;;12.13;45.21;98918.22;5011605;28;20034;-77
2024/04/01 02:14:41;;;;;;;1.20;0.77;;;;;;;12.15;45.36;98914.44;5017645;28;20048;-77
2024/04/01 02:17:08;;;;;;;1.10;0.70;;;;;;;12.13;45.03;98915.50;5009832;28;20041;-78
2024/04/01 02:19:35;;;;;;;2.55;0.82;;;;;;;12.15;45.64;98908.97;5010438;28;20461;-77
2024/04/01 02:22:02;;;;;;;2.08;0.75;;;;;;;12.15;45.10;98914.44;5022494;28;20569;-78
2024/04/01 02:24:28;;;;;;;1.42;0.80;;;;;;;12.13;45.00;98911.91;5017609;28;20046;-77
2024/04/01 02:26:56;;;;;;;1.45;0.80;;;;;;;12.14;45.17;98924.56;5012855;28;20042;-77
2024/04/01 02:29:22;;;;;;;1.55;0.77;;;;;;;12.13;45.47;98919.31;5024166;28;20120;-78
2024/04/01 02:31:51;;;;;;;1.52;0.75;;;;;;;12.15;45.52;98915.31;5021739;28;20103;-78
2024/04/01 02:34:17;;;;;;;1.25;0.70;;;;;;;12.14;45.19;98913.59;5026177;28;20621;-77
2024/04/01 02:36:44;;;;;;;1.25;0.80;;;;;;;12.13;45.43;98907.25;5020739;28;20065;-78
2024/04/01 02:39:16;;;;;;;1.38;0.60;;;;;;;12.13;45.65;98912.75;5027272;28;20088;-77
2024/04/01 02:41:43;;;;;;;1.15;0.82;;;;;;;12.13;45.41;98918.22;5012287;28;20038;-78
2024/04/01 02:44:09;;;;;;;1.85;0.88;;;;;;;12.15;45.16;98928.16;5014397;28;20057;-77
2024/04/01 02:46:36;;;;;;;3.13;1.30;;;;;;;12.15;45.01;98939.97;5014246;28;20033;-78
2024/04/01 02:49:04;;;;;;;2.05;0.90;;;;;;;12.17;45.00;98926.09;5027035;28;20461;-78
2024/04/01 02:51:31;;;;;;;1.77;0.75;;;;;;;12.15;45.43;98930.91;5022453;28;20056;-78
2024/04/01 02:53:57;;;;;;;1.33;0.80;;;;;;;12.13;45.26;98922.84;5023921;28;20087;-78
2024/04/01 02:56:24;;;;;;;2.00;0.68;;;;;;;12.13;45.42;98924.78;5016876;28;20053;-78
2024/04/01 02:58:52;;;;;;;1.05;0.70;;;;;;;12.10;45.46;98910.41;5022177;28;20041;-78
2024/04/01 03:01:19;;;;;;;1.73;0.80;;;;;;;12.11;45.13;98903.03;5021644;28;20041;-78
2024/04/01 03:03:45;;;;;;;1.35;0.80;;;;;;;12.10;45.61;98895.84;5023820;28;20041;-78
2024/04/01 03:06:14;;;;;;;2.42;0.90;;;;;;;12.11;45.60;98897.56;5024034;28;20433;-78
2024/04/01 03:08:40;;;;;;;1.50;0.80;;;;;;;12.09;45.59;98892.25;5018066;28;20053;-78
2024/04/01 03:11:07;;;;;;;1.27;0.80;;;;;;;12.09;45.90;98883.16;5023056;28;20044;-78
2024/04/01 03:13:33;;;;;;;1.20;0.63;;;;;;;12.10;45.94;98879.38;5016958;28;20034;-78
2024/04/01 03:16:00;;;;;;;1.52;0.80;;;;;;;12.10;45.66;98888.47;5016678;28;20129;-77
2024/04/01 03:18:26;;;;;;;1.20;0.80;;;;;;;12.11;45.63;98889.31;5015423;28;20965;-78
2024/04/01 03:20:54;;;;;;;0.98;0.77;;;;;;;12.12;45.92;98877.31;5015293;28;20401;-78
2024/04/01 03:23:21;;;;;;;1.15;0.75;;;;;;;12.13;46.05;98863.38;5021138;28;20041;-77
2024/04/01 03:25:51;;;;;;;1.48;0.88;;;;;;;12.15;46.00;98867.84;5025883;28;20272;-77
2024/04/01 03:28:18;;;;;;;1.48;0.85;;;;;;;12.13;45.70;98867.19;5018409;28;20498;-77
2024/04/01 03:30:46;;;;;;;2.30;0.80;;;;;;;12.11;45.41;98865.50;5019238;28;20052;-78
2024/04/01 03:33:12;;;;;;;1.40;0.80;;;;;;;12.10;45.70;98863.78;5021055;28;20038;-77
2024/04/01 03:35:39;;;;;;;1.90;0.90;;;;;;;12.10;45.49;98862.94;5007882;28;20034;-78
2024/04/01 03:38:07;;;;;;;1.33;0.90;;;;;;;12.08;45.54;98863.13;5026445;28;20037;-78
2024/04/01 03:40:39;;;;;;;2.28;0.95;;;;;;;12.10;45.72;98860.19;5021520;28;20068;-78
2024/04/01 03:43:05;;;;;;;;;;;;;;;11.80;46.71;98862.13;5024793;28;20079;-78
2024/04/01 03:45:32;;;;;;;1.77;0.90;;;;;;;12.00;45.84;98871.47;5020880;28;19947;-77
2024/04/01 03:47:59;;;;;;;1.73;1.13;;;;;;;12.04;45.49;98864.56;5022803;28;20493;-77
2024/04/01 03:50:26;;;;;;;1.50;0.80;;;;;;;12.05;46.02;98862.66;5016565;28;20095;-77
2024/04/01 03:52:52;;;;;;;1.40;0.90;;;;;;;12.04;45.87;98863.72;5019969;28;20037;-78
2024/04/01 03:55:19;;;;;;;1.17;0.80;;;;;;;12.03;46.00;98862.88;5020988;28;20042;-78
2024/04/01 03:57:47;;;;;;;2.55;0.80;;;;;;;12.05;45.98;98868.13;5001205;28;20037;-77
2024/04/01 04:00:15;;;;;;;2.08;0.93;;;;;;;12.04;46.09;98880.16;5004889;28;20090;-77
2024/04/01 04:02:42;;;;;;;1.85;0.90;;;;;;;12.03;46.18;98876.56;5016422;28;20053;-77
2024/04/01 04:05:10;;;;;;;0.85;0.80;;;;;;;12.03;45.65;98862.00;5020611;28;20117;-78
2024/04/01 04:07:36;;;;;;;1.55;0.90;;;;;;;12.02;46.18;98865.78;5025000;28;20524;-77
2024/04/01 04:10:04;;;;;;;1.85;0.75;;;;;;;12.02;46.23;98877.63;5028917;28;20032;-78
2024/04/01 04:12:31;;;;;;;1.30;0.80;;;;;;;12.02;45.75;98882.25;4992364;28;20049;-77
2024/04/01 04:15:03;;;;;;;1.42;0.90;;;;;;;12.03;45.78;98887.53;5018293;28;20042;-78
2024/04/01 04:17:29;;;;;;;1.52;0.98;;;;;;;11.98;45.83;98890.00;5017361;28;20103;-78
2024/04/01 04:19:56;;;;;;;1.83;1.00;;;;;;;12.00;45.69;98885.16;5021305;28;20045;-78
2024/04/01 04:22:22;;;;;;;1.35;0.85;;;;;;;12.00;45.93;98878.84;5013570;28;20197;-77
2024/04/01 04:24:49;;;;;;;1.75;1.00;;;;;;;12.00;46.31;98887.06;5019253;28;20040;-77
2024/04/01 04:27:15;;;;;;;2.45;1.05;;;;;;;11.99;46.34;98891.69;5020333;28;20584;-77
2024/04/01 04:29:42;;;;;;;2.10;0.90;;;;;;;11.99;46.08;98890.84;5011177;28;20045;-77
2024/04/01 04:32:11;;;;;;;2.00;1.00;;;;;;;11.99;46.27;98891.69;5020392;28;20460;-77
2024/04/01 04:34:39;;;;;;;1.73;0.90;;;;;;;11.97;46.03;98893.78;5022090;28;20034;-77
2024/04/01 04:37:06;;;;;;;2.00;0.80;;;;;;;11.98;46.66;98894.63;5000640;28;20046;-77
2024/04/01 04:39:33;;;;;;;2.67;1.30;;;;;;;11.97;46.16;98898.41;5020621;28;20072;-77
2024/04/01 04:41:59;;;;;;;1.52;0.88;;;;;;;11.96;46.68;98892.09;5000702;28;20041;-77
2024/04/01 04:44:26;;;;;;;2.15;0.95;;;;;;;11.96;46.37;98894.84;5022840;28;20103;-77
2024/04/01 04:46:53;;;;;;;1.70;0.85;;;;;;;11.96;46.49;98900.31;5020008;28;20045;-77
2024/04/01 04:49:21;;;;;;;1.05;0.77;;;;;;;11.97;46.87;98898.41;5026803;28;20092;-77
2024/04/01 04:51:47;;;;;;;2.55;1.15;;;;;;;11.95;46.43;98906.00;5020325;28;20069;-77
2024/04/01 04:54:14;;;;;;;2.63;1.10;;;;;;;11.94;46.41;98902.38;5018001;28;20049;-77
2024/04/01 04:56:40;;;;;;;2.78;1.15;;;;;;;11.94;47.01;98902.38;5009417;28;20461;-77
2024/04/01 04:59:10;;;;;;;1.63;1.00;;;;;;;11.93;46.59;98906.16;5020265;28;20467;-77
2024/04/01 05:01:37;;;;;;;2.50;1.17;;;;;;;11.93;46.58;98906.16;5010911;28;20044;-76
2024/04/01 05:04:04;;;;;;;2.45;0.90;;;;;;;11.92;46.70;98912.69;5022839;28;20533;-77
2024/04/01 05:06:32;;;;;;;2.47;1.00;;;;;;;11.92;46.63;98912.69;5022727;28;20049;-77
2024/04/01 05:08:58;;;;;;;2.35;1.17;;;;;;;11.90;46.96;98912.03;5026157;28;20065;-76
2024/04/01 05:11:25;;;;;;;1.80;0.90;;;;;;;11.91;46.74;98918.34;5023626;28;20059;-77
2024/04/01 05:13:51;;;;;;;1.70;1.10;;;;;;;11.89;46.65;98909.47;5012816;28;20401;-77
2024/04/01 05:16:18;;;;;;;1.88;1.20;;;;;;;11.87;46.61;98923.38;5003997;28;20056;-77
2024/04/01 05:18:46;;;;;;;2.47;1.10;;;;;;;11.86;47.35;98915.34;5017026;28;20450;-77
2024/04/01 05:21:13;;;;;;;3.50;1.40;;;;;;;11.85;47.38;98919.13;5030212;28;20072;-77
2024/04/01 05:23:41;;;;;;;2.28;1.13;;;;;;;11.87;47.47;98919.78;5007728;28;20052;-77
2024/04/01 05:26:09;;;;;;;2.10;1.10;;;;;;;11.83;47.44;98923.94;5018537;28;20065;-78
2024/04/01 05:28:35;;;;;;;2.10;1.15;;;;;;;11.82;47.51;98927.72;5017608;28;20034;-76
2024/04/01 05:31:02;;;;;;;2.15;1.08;;;;;;;11.82;47.51;98923.09;5024183;28;20065;-76
2024/04/01 05:33:33;;;;;;;2.13;1.20;;;;;;;11.82;46.99;98933.19;5003758;28;20052;-76
2024/04/01 05:36:02;;;;;;;2.28;1.20;;;;;;;11.81;47.03;98934.22;5024941;28;20091;-77
2024/04/01 05:38:28;;;;;;;2.03;1.25;;;;;;;11.81;47.31;98931.50;5023672;28;20068;-79
2024/04/01 05:40:56;;;;;;;2.75;1.20;;;;;;;11.82;47.42;98942.28;5027978;28;20060;-76
2024/04/01 05:43:22;;;;;;;2.67;1.10;;;;;;;11.81;47.43;98950.69;5008623;28;20088;-76
2024/04/01 05:45:50;;;;;;;2.42;1.10;;;;;;;11.80;47.92;98947.09;5006563;28;20051;-76
2024/04/01 05:48:16;;;;;;;1.80;1.10;;;;;;;11.81;48.03;98957.00;5016852;28;20038;-77
2024/04/01 05:50:48;;;;;;;1.40;1.00;;;;;;;11.83;48.02;98954.09;5027223;28;20038;-77
2024/04/01 05:53:14;;;;;;;2.85;1.23;;;;;;;11.80;47.85;98962.72;5004967;28;20064;-77
2024/04/01 05:55:41;;;;;;;1.38;0.88;;;;;;;11.81;47.84;98967.13;5022645;28;20492;-77
2024/04/01 05:58:09;;;;;;;2.47;1.00;;;;;;;11.82;47.95;98957.88;5015758;28;20068;-76
2024/04/01 06:00:37;;;;;;;2.03;0.95;;;;;;;11.81;47.74;98961.63;5020160;28;20037;-77
2024/04/01 06:03:05;;;;;;;2.30;1.25;;;;;;;11.81;48.25;98969.84;5008170;28;20058;-77
2024/04/01 06:05:32;;;;;;;2.38;1.30;;;;;;;11.80;48.19;98959.97;5021102;28;20057;-77
2024/04/01 06:07:58;;;;;;;2.47;1.25;;;;;;;11.79;48.27;98961.84;5008465;28;20041;-77
2024/04/01 06:10:24;;;;;;;2.10;1.15;;;;;;;11.79;47.93;98975.56;5027420;28;20030;-77
2024/04/01 06:12:52;;;;;;;2.90;1.42;;;;;;;11.78;48.02;98971.09;5017351;28;20053;-76
2024/04/01 06:15:20;;;;;;;1.88;1.17;;;;;;;11.80;48.46;98977.22;5020350;28;20033;-75
2024/04/01 06:17:48;;;;;;;2.17;1.08;;;;;;;11.77;48.15;98974.88;5012835;28;20644;-75
2024/04/01 06:20:14;;;;;;;2.58;1.10;;;;;;;11.76;47.94;98975.91;5020140;28;20520;-74
2024/04/01 06:22:41;;;;;;;2.30;1.10;;;;;;;11.74;48.03;98973.38;5024748;28;20045;-75
2024/04/01 06:25:07;;;;;;;2.45;1.40;;;;;;;11.73;48.62;98977.13;5022852;28;20076;-74
2024/04/01 06:27:34;;;;;;;2.17;1.23;;;;;;;11.72;48.72;98980.06;5017528;28;20103;-75
2024/04/01 06:30:00;;;;;;;1.70;1.05;;;;;;;11.70;48.72;98974.78;5023065;28;20045;-74
2024/04/01 06:32:28;;;;;;;2.95;1.45;;;;;;;11.71;48.37;98981.97;4997666;28;20037;-75
2024/04/01 06:34:55;;;;;;;1.88;1.00;;;;;;;11.68;48.79;98974.13;5023058;28;20060;-75
2024/04/01 06:37:22;;;;;;;3.10;1.40;;;;;;;11.68;49.02;98981.50;5010218;28;20542;-75
2024/04/01 06:39:52;;;;;;;1.70;1.13;;;;;;;11.66;48.60;98972.59;5021867;28;20046;-75
2024/04/01 06:42:19;;;;;;;1.90;1.10;;;;;;;11.65;49.01;98976.38;5005523;28;20050;-74
2024/04/01 06:44:46;;;;;;;4.30;1.48;;;;;;;11.64;48.92;98974.66;5024506;28;20042;-75
2024/04/01 06:47:15;;;;;;;2.28;1.33;;;;;;;11.64;48.92;98982.88;5026785;28;20412;-75
2024/04/01 06:49:42;;;;;;;2.17;1.20;;;;;;;11.63;49.29;98989.44;5008534;28;20046;-75
2024/04/01 06:52:10;;;;;;;1.65;1.02;;;;;;;11.63;48.96;98986.69;5014365;28;20053;-75
2024/04/01 06:54:36;;;;;;;2.10;1.20;;;;;;;11.60;49.00;98990.63;5023403;28;20060;-75
2024/04/01 06:57:03;;;;;;;2.35;1.20;;;;;;;11.59;49.48;98986.16;5023854;28;20035;-74
2024/04/01 06:59:29;;;;;;;1.83;0.98;;;;;;;11.59;48.95;98988.06;5025363;28;20033;-75
2024/04/01 07:01:56;;;;;;;1.88;1.17;;;;;;;11.58;49.00;98998.16;5017230;28;20062;-74
2024/04/01 07:04:22;;;;;;;2.25;1.20;;;;;;;11.57;49.57;98999.19;5017286;28;20044;-75
2024/04/01 07:06:50;;;;;;;2.40;1.10;;;;;;;11.58;49.22;99005.53;5008118;28;20124;-75
2024/04/01 07:09:16;;;;;;;2.38;1.15;;;;;;;11.55;49.67;99006.78;5021539;28;20522;-76
2024/04/01 07:11:43;;;;;;;1.70;1.10;;;;;;;11.54;49.04;99010.53;5013644;28;20045;-75
2024/04/01 07:14:09;;;;;;;2.75;1.20;;;;;;;11.52;49.11;99007.13;5017396;28;20049;-77
2024/04/01 07:16:36;;;;;;;2.22;1.30;;;;;;;11.50;49.24;99009.19;5015985;28;20063;-76
2024/04/01 07:19:02;;;;;;;2.42;1.33;;;;;;;11.49;49.27;99015.72;5023156;28;20049;-74
2024/04/01 07:21:31;;;;;;;3.15;1.23;;;;;;;11.48;49.31;99022.22;5021370;28;20042;-77
2024/04/01 07:23:58;;;;;;;3.05;1.30;;;;;;;11.48;49.35;99016.75;5016626;28;20034;-74
2024/04/01 07:26:25;;;;;;;3.17;1.30;;;;;;;11.45;49.34;99011.66;5015610;28;20046;-76
2024/04/01 07:28:51;;;;;;;3.20;1.50;;;;;;;11.45;49.34;99002.59;5025940;28;20052;-77
2024/04/01 07:31:18;;;;;;;2.67;1.40;;;;;;;11.43;49.83;99001.91;5007677;28;20034;-77
2024/04/01 07:33:44;;;;;;;2.85;1.50;;;;;;;11.42;50.00;99000.19;5018086;28;20312;-76
2024/04/01 07:36:11;;;;;;;3.78;1.40;;;;;;;11.41;49.64;99009.44;5019080;28;20440;-77
2024/04/01 07:38:41;;;;;;;1.98;1.10;;;;;;;11.41;49.81;99020.41;5022630;28;20046;-77
2024/04/01 07:41:11;;;;;;;2.28;1.30;;;;;;;11.39;49.76;99034.28;5015343;28;20085;-75
2024/04/01 07:43:37;;;;;;;2.45;1.30;;;;;;;11.36;49.98;99040.16;5022355;28;20044;-77
2024/04/01 07:46:04;;;;;;;2.03;1.00;;;;;;;11.34;50.11;99039.47;5025698;28;20522;-77
2024/04/01 07:48:30;;;;;;;1.90;1.27;;;;;;;11.33;49.82;99026.81;5014245;28;20038;-77
2024/04/01 07:51:02;;;;;;;2.78;1.30;;;;;;;11.34;50.68;99018.41;5019265;28;20083;-78
2024/04/01 07:53:28;;;;;;;2.00;1.13;;;;;;;11.28;50.16;99023.78;5024180;28;20069;-78
2024/04/01 07:55:55;;;;;;;3.28;1.45;;;;;;;11.30;50.09;99027.19;5006465;28;20095;-78
2024/04/01 07:58:26;;;;;;;2.38;1.10;;;;;;;11.29;51.08;99034.56;5094516;23;20049;31
2024/04/01 08:00:55;;;;;;;2.25;1.20;;;;;;;11.25;50.23;99048.78;4967900;28;20051;-75
2024/04/01 08:03:21;;;;;;;2.85;1.20;;;;;;;11.23;50.12;99054.44;4954731;28;20408;-75
2024/04/01 08:05:48;;;;;;;1.77;1.13;;;;;;;11.22;50.03;99060.97;4963614;28;20426;-75
2024/04/01 08:08:14;;;;;;;2.53;1.13;;;;;;;11.21;50.54;99067.47;4962429;28;20101;-75
2024/04/01 08:10:45;;;;;;;1.52;1.00;;;;;;;11.23;50.77;99075.47;4987531;28;20085;-75
2024/04/01 08:13:11;;;;;;;1.20;1.00;;;;;;;11.16;50.58;99063.56;4999746;28;20050;-75
2024/04/01 08:15:40;;;;;;;3.10;1.23;;;;;;;11.18;50.40;99073.31;4967768;28;20085;-75
2024/04/01 08:18:07;;;;;;;2.15;1.10;;;;;;;11.16;50.40;99069.88;4964305;28;20061;-75
2024/04/01 08:20:34;;;;;;;2.83;1.10;;;;;;;11.16;50.43;99080.00;4984518;28;20064;-75
2024/04/01 08:23:01;;;;;;;2.72;1.30;;;;;;;11.16;50.21;99093.69;4983419;28;20101;-75
2024/04/01 08:25:27;;;;;;;2.47;1.20;;;;;;;11.15;50.28;99091.97;4983874;28;20045;-75
2024/04/01 08:27:54;;;;;;;2.33;1.27;;;;;;;11.14;50.23;99091.13;4983646;28;20066;-75
2024/04/01 08:30:20;;;;;;;2.25;1.20;;;;;;;11.13;50.15;99100.38;4996011;28;20034;-75
2024/04/01 08:32:48;;;;;;;3.15;1.42;;;;;;;11.13;50.88;99092.19;4966699;28;20042;-76
2024/04/01 08:35:15;;;;;;;3.83;1.40;;;;;;;11.11;50.37;99091.50;4978574;28;20054;-75
2024/04/01 08:37:42;;;;;;;1.83;1.20;;;;;;;11.10;50.72;99080.72;4988055;28;20042;-75
2024/04/01 08:40:08;;;;;;;1.85;1.15;;;;;;;11.08;50.77;99091.84;4985205;28;20043;-76
2024/04/01 08:42:38;;;;;;;2.42;1.30;;;;;;;11.09;50.68;99092.69;4989202;28;20168;-75
2024/04/01 08:45:05;;;;;;;2.35;1.30;;;;;;;11.08;50.74;99091.00;4985182;28;20365;-75
2024/04/01 08:47:35;;;;;;;1.98;1.30;;;;;;;11.08;51.16;99097.31;4986428;28;20053;-76
2024/04/01 08:50:05;;;;;;;2.13;1.40;;;;;;;11.07;50.76;99092.03;4982433;28;20069;-76
2024/04/01 08:52:40;;;;;;;3.13;1.60;;;;;;;11.06;51.41;99096.63;4989385;28;20038;-75
2024/04/01 08:55:06;;;;;;;3.72;1.65;;;;;;;11.03;50.87;99096.16;4988229;28;20041;-75
2024/04/01 08:57:34;;;;;;;2.72;1.52;;;;;;;11.02;50.43;99099.94;4969347;28;20595;-75
2024/04/01 09:00:00;;;;;;;2.38;1.40;;;;;;;11.01;50.38;99095.50;4976555;28;20043;-75
2024/04/01 09:02:27;;;;;;;3.47;1.42;;;;;;;11.00;50.89;99094.63;4969814;28;20042;-75
2024/04/01 09:04:53;;;;;;;2.83;1.50;;;;;;;10.98;50.90;99094.81;4976987;28;20084;-75
2024/04/01 09:07:21;;;;;;;2.25;1.40;;;;;;;10.98;51.12;99103.03;4965963;28;20042;-75
2024/04/01 09:09:47;;;;;;;2.55;1.35;;;;;;;10.94;50.83;99098.94;4965374;28;20038;-75
2024/04/01 09:12:15;;;;;;;2.60;1.42;;;;;;;10.93;50.52;99105.47;4968307;28;20046;-76
2024/04/01 09:14:41;;;;;;;2.80;1.30;;;;;;;10.93;50.70;99107.34;4965464;28;20097;-75
2024/04/01 09:17:08;;;;;;;1.90;1.33;;;;;;;10.91;50.66;99123.06;4954642;28;20038;-76
2024/04/01 09:19:34;;;;;;;2.92;1.45;;;;;;;10.88;51.09;99124.31;4960064;28;20402;-77
2024/04/01 09:22:01;;;;;;;2.40;1.40;;;;;;;10.88;50.70;99129.78;4973715;28;20039;-76
2024/04/01 09:24:31;;;;;;;2.45;1.52;;;;;;;10.89;51.16;99133.38;4988596;28;20080;-76
2024/04/01 09:26:58;;;;;;;2.53;1.48;;;;;;;10.86;51.01;99136.44;4984597;28;20057;-76
2024/04/01 09:29:24;;;;;;;2.35;1.40;;;;;;;10.84;50.55;99147.56;4968726;28;20042;-77
2024/04/01 09:31:52;;;;;;;2.40;1.60;;;;;;;10.84;50.64;99141.25;4972482;28;20035;-77
2024/04/01 09:34:18;;;;;;;2.50;1.65;;;;;;;10.81;50.39;99147.09;4973420;28;20059;-77
2024/04/01 09:36:46;;;;;;;2.25;1.38;;;;;;;10.79;51.06;99146.41;4974296;28;20096;-77
2024/04/01 09:39:13;;;;;;;2.67;1.65;;;;;;;10.80;50.91;99153.59;4952976;28;20046;-76
2024/04/01 09:41:42;;;;;;;2.33;1.40;;;;;;;10.80;51.09;99161.81;4968344;28;20521;-77
2024/04/01 09:44:10;;;;;;;2.67;1.70;;;;;;;10.76;51.03;99158.56;4967772;28;20141;-77
2024/04/01 09:46:38;;;;;;;2.35;1.65;;;;;;;10.78;50.99;99166.59;4966765;28;20046;-77
2024/04/01 09:49:06;;;;;;;2.65;1.55;;;;;;;10.77;51.01;99164.88;4968630;28;20042;-77
2024/04/01 09:51:34;;;;;;;3.00;1.85;;;;;;;10.76;51.02;99166.75;4965449;28;20259;-77
2024/04/01 09:54:00;;;;;;;3.15;1.75;;;;;;;10.75;51.16;99173.25;4969362;28;20038;-77
2024/04/01 09:57:05;;;;;;;3.85;2.00;;;;;;;10.75;52.38;99177.88;4953119;28;20049;-77
2024/04/01 10:00:00;;;;;;;2.90;1.85;;;;;;;10.76;51.93;99179.59;4972268;28;20093;-77
2024/04/01 10:03:06;;;;;;;3.10;2.30;;;;;;;10.72;52.15;99181.84;4962041;28;20047;-77
2024/04/01 10:06:14;;;;;;;3.03;1.90;;;;;;;10.72;52.38;99183.72;4974222;28;20096;-77
2024/04/01 10:09:17;;;;;;;3.10;2.08;;;;;;;10.72;52.24;99179.09;4934588;28;20408;-77
2024/04/01 10:11:59;;;;;;;2.83;2.08;;;;;;;10.73;52.43;99178.03;4980452;28;20459;-77
2024/04/01 10:15:26;;;;;;;3.30;1.98;;;;;;;10.68;52.57;99176.88;4963935;28;20501;-77
2024/04/01 10:18:10;;;;;;;2.78;2.00;;;;;;;10.72;52.84;99191.94;4945363;28;20043;-77
2024/04/01 10:21:11;;;;;;;3.28;2.17;;;;;;;10.74;52.95;99198.06;4970071;28;20035;-77
2024/04/01 10:24:08;;;;;;;3.33;2.20;;;;;;;10.75;52.50;99205.25;4967540;28;20404;-77
2024/04/01 10:27:12;;;;;;;3.00;2.10;;;;;;;10.75;52.59;99208.84;4977039;28;20042;-77
2024/04/01 10:29:54;;;;;;;3.85;2.05;;;;;;;10.79;53.04;99207.47;4974441;28;20038;-77
2024/04/01 10:32:53;;;;;;;4.35;2.35;;;;;;;10.79;52.86;99212.94;4974502;28;20058;-77
2024/04/01 10:35:55;;;;;;;2.92;2.00;;;;;;;10.83;52.48;99218.91;4990539;28;20038;-78
2024/04/01 10:38:47;;;;;;;2.78;2.10;;;;;;;10.89;52.10;99215.47;4973669;28;20050;-77
2024/04/01 10:41:48;;;;;;;3.20;2.17;;;;;;;10.86;52.37;99219.41;4957928;28;20046;-77
2024/04/01 10:44:42;;;;;;;3.22;2.10;;;;;;;10.93;52.67;99205.88;4972280;28;20406;-77
2024/04/01 10:47:39;;;;;;;3.08;2.22;;;;;;;10.94;51.86;99211.19;4957437;28;20162;-77
2024/04/01 10:50:28;;;;;;;3.20;2.40;;;;;;;10.99;51.95;99207.88;4966121;28;20090;-77
2024/04/01 10:53:36;;;;;;;3.20;2.13;;;;;;;10.97;51.78;99224.53;4970781;28;20101;-77
2024/04/01 10:56:39;;;;;;;3.58;2.30;;;;;;;11.02;51.82;99221.25;4970941;28;20413;-77
2024/04/01 10:59:39;;;;;;;3.20;2.10;;;;;;;11.03;51.94;99225.69;4971188;28;20042;-78
2024/04/01 11:02:29;;;;;;;2.90;2.15;;;;;;;11.07;52.00;99228.91;4972422;28;20071;-77
2024/04/01 11:05:24;;;;;;;3.40;2.17;;;;;;;11.08;52.09;99230.63;4968886;28;20038;-77
2024/04/01 11:08:07;;;;;;;2.95;2.22;;;;;;;11.10;51.70;99237.63;4972758;28;20046;-77
2024/04/01 11:10:36;;;;;;;;;;;;;;;10.83;52.13;99240.78;4957927;28;20042;-77
2024/04/01 11:13:05;;;;;;;3.17;2.30;;;;;;;11.08;51.35;99247.03;4973113;28;19936;-77
2024/04/01 11:15:32;;;;;;;4.20;2.42;;;;;;;11.11;51.12;99253.03;4975075;28;20042;-77
2024/04/01 11:18:13;;;;;;;3.80;2.67;;;;;;;11.16;51.32;99261.56;4982329;28;20043;-76
2024/04/01 11:20:44;;;;;;;3.85;2.65;;;;;;;11.14;51.39;99263.59;4981163;28;20046;-76
2024/04/01 11:23:44;;;;;;;3.60;2.78;;;;;;;11.16;51.70;99261.56;4971535;28;20054;-76
2024/04/01 11:26:27;;;;;;;4.88;3.00;;;;;;;11.17;51.18;99276.97;4972190;28;20159;-76
2024/04/01 11:29:10;;;;;;;3.88;2.78;;;;;;;11.18;51.78;99272.34;4967544;28;20046;-76
2024/04/01 11:31:40;;;;;;;;;;;;;;;10.91;52.25;99276.34;4984396;28;20093;-76
2024/04/01 11:34:16;;;;;;;4.63;3.00;;;;;;;11.16;51.32;99272.50;4985127;28;20116;-76
2024/04/01 11:36:57;;;;;;;3.80;2.92;;;;;;;11.20;51.61;99279.34;4966034;28;20034;-76
2024/04/01 11:39:25;;;;;;;5.05;3.55;;;;;;;11.20;51.35;99281.22;4971563;28;20524;-77
2024/04/01 11:41:55;;;;;;;5.38;3.80;;;;;;;11.23;50.73;99292.66;4970433;28;20037;-76
2024/04/01 11:44:25;;;;;;;6.32;3.40;;;;;;;11.24;51.07;99294.38;4974198;28;20046;-76
2024/04/01 11:46:53;;;;;;;4.82;3.20;;;;;;;11.26;50.52;99299.69;4982861;28;20038;-77
2024/04/01 11:49:23;;;;;;;4.63;2.65;;;;;;;11.25;50.84;99304.31;4974195;28;20057;-77